createdAt,value
2022-12-03T00:00:21.012Z,4.38
2022-12-03T00:02:21.154Z,4.63
2022-12-03T00:04:21.015Z,4.49
2022-12-03T00:06:21.105Z,4.37
2022-12-03T00:08:21.111Z,4.68
2022-12-03T00:09:35.856Z,4.8
2022-12-03T00:11:35.912Z,4.8
2022-12-03T00:13:35.705Z,4.78
2022-12-03T00:15:35.798Z,4.78
2022-12-03T00:17:35.688Z,4.5
2022-12-03T00:19:35.681Z,4.41
2022-12-03T00:21:35.744Z,4.58
2022-12-03T00:25:16.506Z,4.65
2022-12-03T00:27:16.519Z,4.73
2022-12-03T00:29:16.494Z,4.83
2022-12-03T00:31:16.549Z,4.83
2022-12-03T00:33:16.523Z,4.86
2022-12-03T00:35:16.506Z,4.92
2022-12-03T00:37:16.499Z,4.92
2022-12-03T00:40:17.637Z,4.97
2022-12-03T00:42:17.481Z,4.76
2022-12-03T00:44:17.598Z,4.75
2022-12-03T00:46:21.231Z,4.89
2022-12-03T00:48:17.508Z,4.9
2022-12-03T00:50:17.387Z,4.92
2022-12-03T00:52:17.397Z,4.79
2022-12-03T00:55:53.718Z,4.73
2022-12-03T00:57:53.636Z,4.88
2022-12-03T00:59:53.545Z,4.93
2022-12-03T01:01:53.581Z,5.03
2022-12-03T01:03:53.619Z,5.01
2022-12-03T01:05:53.650Z,5.04
2022-12-03T01:07:53.507Z,4.98
2022-12-03T01:10:51.153Z,4.55
2022-12-03T01:12:51.208Z,4.62
2022-12-03T01:14:51.437Z,4.82
2022-12-03T01:16:51.135Z,4.8
2022-12-03T01:18:51.180Z,4.54
2022-12-03T01:20:51.141Z,4.42
2022-12-03T01:22:51.153Z,4.35
2022-12-03T01:25:55.435Z,4.01
2022-12-03T01:27:55.454Z,3.32
2022-12-03T01:29:55.410Z,3.53
2022-12-03T01:31:55.426Z,3.58
2022-12-03T01:33:55.415Z,3.84
2022-12-03T01:35:55.458Z,3.74
2022-12-03T01:37:55.418Z,3.72
2022-12-03T01:40:38.103Z,3.8
2022-12-03T01:42:38.076Z,3.91
2022-12-03T01:44:38.093Z,3.9
2022-12-03T01:46:38.113Z,4
2022-12-03T01:48:38.074Z,4.05
2022-12-03T01:50:38.075Z,4.31
2022-12-03T01:52:38.064Z,4.55
2022-12-03T01:56:08.112Z,4.35
2022-12-03T01:58:08.093Z,4.22
2022-12-03T02:00:08.133Z,4.13
2022-12-03T02:02:08.151Z,4.11
2022-12-03T02:04:08.134Z,3.92
2022-12-03T02:06:08.101Z,4.03
2022-12-03T02:08:08.148Z,4.15
2022-12-03T02:11:25.881Z,4.16
2022-12-03T02:13:25.820Z,4.04
2022-12-03T02:15:25.858Z,4.06
2022-12-03T02:17:25.833Z,4.15
2022-12-03T02:19:25.839Z,4.14
2022-12-03T02:21:25.808Z,4.21
2022-12-03T02:23:25.823Z,4.18
2022-12-03T02:26:44.208Z,4.22
2022-12-03T02:28:44.218Z,4.14
2022-12-03T02:30:44.311Z,4.22
2022-12-03T02:32:44.183Z,4.22
2022-12-03T02:34:44.242Z,4.2
2022-12-03T02:36:44.180Z,4.28
2022-12-03T02:38:44.204Z,4.16
2022-12-03T02:41:08.654Z,4.16
2022-12-03T02:43:08.659Z,4
2022-12-03T02:45:08.634Z,4.08
2022-12-03T02:47:08.746Z,3.96
2022-12-03T02:49:08.685Z,3.82
2022-12-03T02:51:08.638Z,3.82
2022-12-03T02:53:08.660Z,3.81
2022-12-03T02:55:08.626Z,3.92
2022-12-03T02:56:37.883Z,4.09
2022-12-03T02:58:37.873Z,4.23
2022-12-03T03:00:37.931Z,3.95
2022-12-03T03:02:37.922Z,4
2022-12-03T03:04:37.910Z,4.01
2022-12-03T03:06:37.957Z,3.54
2022-12-03T03:08:37.872Z,3.37
2022-12-03T03:12:14.275Z,3.44
2022-12-03T03:14:14.260Z,3.19
2022-12-03T03:16:14.300Z,2.76
2022-12-03T03:18:14.292Z,3.09
2022-12-03T03:20:14.299Z,3.21
2022-12-03T03:22:14.279Z,3.14
2022-12-03T03:24:14.251Z,3.22
2022-12-03T03:26:35.632Z,3.52
2022-12-03T03:28:35.611Z,3.44
2022-12-03T03:30:35.591Z,3.15
2022-12-03T03:32:35.579Z,3.36
2022-12-03T03:34:35.603Z,3.73
2022-12-03T03:36:35.563Z,3.95
2022-12-03T03:38:35.758Z,4.2
2022-12-03T03:40:35.802Z,4.11
2022-12-03T03:42:14.221Z,3.97
2022-12-03T03:44:14.250Z,3.79
2022-12-03T03:46:14.350Z,3.53
2022-12-03T03:48:14.228Z,3.02
2022-12-03T03:50:14.228Z,3.24
2022-12-03T03:52:14.224Z,3.19
2022-12-03T03:54:14.246Z,3.26
2022-12-03T03:57:24.766Z,3.48
2022-12-03T03:59:24.790Z,3.69
2022-12-03T04:01:24.913Z,3.69
2022-12-03T04:03:24.826Z,3.52
2022-12-03T04:05:24.793Z,3.58
2022-12-03T04:07:24.764Z,3.76
2022-12-03T04:09:24.770Z,3.82
2022-12-03T04:12:51.274Z,3.83
2022-12-03T04:14:51.603Z,3.98
2022-12-03T04:16:51.313Z,4.3
2022-12-03T04:18:51.281Z,4.27
2022-12-03T04:20:51.317Z,4.29
2022-12-03T04:22:51.281Z,4.19
2022-12-03T04:24:51.612Z,3.96
2022-12-03T04:27:32.693Z,4.23
2022-12-03T04:29:32.596Z,4.31
2022-12-03T04:31:32.530Z,4.61
2022-12-03T04:33:32.523Z,4.68
2022-12-03T04:35:32.594Z,4.66
2022-12-03T04:37:32.583Z,4.74
2022-12-03T04:39:32.577Z,4.65
2022-12-03T04:42:54.752Z,4.43
2022-12-03T04:44:54.960Z,4.54
2022-12-03T04:46:54.726Z,4.65
2022-12-03T04:48:54.761Z,4.64
2022-12-03T04:50:54.715Z,4.67
2022-12-03T04:52:54.755Z,4.66
2022-12-03T04:54:55.119Z,4.62
2022-12-03T04:58:24.030Z,4.59
2022-12-03T05:00:23.965Z,4.38
2022-12-03T05:02:24.021Z,4.27
2022-12-03T05:04:24.132Z,4.14
2022-12-03T05:06:23.868Z,3.98
2022-12-03T05:08:23.892Z,4.03
2022-12-03T05:10:23.849Z,4.29
2022-12-03T05:13:26.963Z,4.61
2022-12-03T05:15:26.912Z,4.51
2022-12-03T05:17:26.912Z,4.58
2022-12-03T05:19:26.922Z,4.61
2022-12-03T05:21:26.921Z,4.74
2022-12-03T05:23:26.935Z,4.79
2022-12-03T05:25:26.920Z,4.8
2022-12-03T05:28:21.211Z,4.88
2022-12-03T05:30:21.228Z,4.93
2022-12-03T05:32:21.223Z,4.85
2022-12-03T05:34:21.228Z,4.73
2022-12-03T05:36:21.225Z,4.6
2022-12-03T05:38:21.391Z,4.44
2022-12-03T05:40:21.203Z,4.32
2022-12-03T05:43:37.044Z,4.4
2022-12-03T05:45:37.053Z,4.55
2022-12-03T05:47:37.229Z,4.44
2022-12-03T05:49:37.184Z,4.19
2022-12-03T05:51:37.279Z,4.13
2022-12-03T05:53:37.081Z,4.08
2022-12-03T05:55:37.190Z,4.12
2022-12-03T05:58:43.368Z,4.31
2022-12-03T06:00:43.337Z,4.25
2022-12-03T06:02:43.526Z,4.36
2022-12-03T06:04:43.362Z,4.37
2022-12-03T06:06:43.431Z,4.37
2022-12-03T06:08:43.360Z,4.39
2022-12-03T06:10:43.369Z,4.37
2022-12-03T06:13:29.841Z,4.3
2022-12-03T06:15:29.911Z,4.3
2022-12-03T06:17:29.874Z,4.2
2022-12-03T06:19:29.889Z,4.23
2022-12-03T06:21:29.863Z,4.16
2022-12-03T06:23:29.837Z,4.16
2022-12-03T06:25:29.874Z,4.13
2022-12-03T06:29:14.300Z,4.08
2022-12-03T06:31:14.264Z,4.22
2022-12-03T06:33:14.219Z,4.21
2022-12-03T06:35:14.275Z,4.18
2022-12-03T06:37:14.227Z,4.29
2022-12-03T06:39:14.236Z,4.34
2022-12-03T06:41:14.251Z,4.32
2022-12-03T06:43:59.656Z,4.37
2022-12-03T06:45:59.729Z,4.49
2022-12-03T06:47:59.760Z,4.45
2022-12-03T06:59:09.703Z,4.71
2022-12-03T07:01:09.787Z,4.7
2022-12-03T07:03:09.704Z,4.65
2022-12-03T07:05:09.687Z,4.55
2022-12-03T07:07:09.720Z,4.77
2022-12-03T07:09:09.809Z,4.68
2022-12-03T07:11:09.682Z,4.62
2022-12-03T07:14:42.095Z,4.66
2022-12-03T07:16:42.152Z,4.91
2022-12-03T07:18:42.282Z,4.82
2022-12-03T07:20:42.044Z,4.73
2022-12-03T07:22:42.179Z,4.89
2022-12-03T07:24:42.056Z,4.87
2022-12-03T07:26:42.123Z,4.98
2022-12-03T07:30:06.161Z,5.26
2022-12-03T07:32:06.334Z,5.32
2022-12-03T07:34:06.269Z,5.37
2022-12-03T07:36:06.607Z,5.12
2022-12-03T07:38:06.017Z,5.03
2022-12-03T07:40:06.041Z,4.9
2022-12-03T07:42:06.059Z,4.84
2022-12-03T07:44:21.547Z,4.92
2022-12-03T07:46:21.626Z,4.92
2022-12-03T07:48:21.635Z,4.96
2022-12-03T07:50:21.530Z,5
2022-12-03T07:52:21.586Z,5.07
2022-12-03T07:54:21.586Z,5.22
2022-12-03T07:56:21.512Z,5.08
2022-12-03T07:58:21.528Z,5.26
2022-12-03T08:00:14.398Z,5.26
2022-12-03T08:02:19.587Z,5.19
2022-12-03T08:04:14.447Z,5.1
2022-12-03T08:06:14.367Z,5.18
2022-12-03T08:08:14.490Z,5.19
2022-12-03T08:10:14.375Z,5.14
2022-12-03T08:12:14.394Z,5.1
2022-12-03T08:14:39.691Z,5.1
2022-12-03T08:16:39.746Z,5.14
2022-12-03T08:18:39.680Z,5.3
2022-12-03T08:20:39.641Z,5.4
2022-12-03T08:22:39.757Z,5.47
2022-12-03T08:24:39.685Z,5.36
2022-12-03T08:26:39.643Z,5.19
2022-12-03T08:28:39.703Z,5.33
2022-12-03T08:29:46.729Z,5.47
2022-12-03T08:31:46.765Z,5.14
2022-12-03T08:33:46.785Z,5.42
2022-12-03T08:35:46.756Z,5.37
2022-12-03T08:37:46.736Z,5.34
2022-12-03T08:39:46.746Z,4.81
2022-12-03T08:41:46.737Z,4.94
2022-12-03T08:43:46.769Z,5.16
2022-12-03T08:45:38.175Z,5.45
2022-12-03T08:47:38.100Z,5.61
2022-12-03T08:49:38.094Z,5.61
2022-12-03T08:51:38.130Z,5.88
2022-12-03T08:53:38.136Z,6.08
2022-12-03T08:55:38.214Z,5.93
2022-12-03T08:57:38.084Z,5.63
2022-12-03T09:00:44.478Z,5.42
2022-12-03T09:02:44.408Z,5.19
2022-12-03T09:04:44.422Z,5.38
2022-12-03T09:06:44.490Z,5.32
2022-12-03T09:08:44.390Z,5.43
2022-12-03T09:10:44.384Z,5.4
2022-12-03T09:12:44.405Z,5.3
2022-12-03T09:16:06.038Z,5.31
2022-12-03T09:18:06.042Z,5.44
2022-12-03T09:20:05.985Z,5.74
2022-12-03T09:22:06.030Z,5.91
2022-12-03T09:24:05.990Z,5.72
2022-12-03T09:26:05.997Z,5.73
2022-12-03T09:28:06.526Z,6.05
2022-12-03T09:30:38.864Z,6.17
2022-12-03T09:32:38.777Z,6.35
2022-12-03T09:34:38.763Z,6.15
2022-12-03T09:36:38.826Z,6.09
2022-12-03T09:38:41.872Z,6.02
2022-12-03T09:40:38.752Z,5.96
2022-12-03T09:42:38.795Z,6.31
2022-12-03T09:46:08.364Z,6.74
2022-12-03T09:48:08.314Z,6.85
2022-12-03T09:50:08.299Z,6.94
2022-12-03T09:52:08.314Z,6.98
2022-12-03T09:54:08.333Z,7.12
2022-12-03T09:56:08.299Z,6.99
2022-12-03T09:58:08.311Z,6.6
2022-12-03T10:01:04.134Z,6.84
2022-12-03T10:03:04.093Z,6.84
2022-12-03T10:05:04.101Z,6.55
2022-12-03T10:07:04.123Z,6.27
2022-12-03T10:09:04.064Z,6.68
2022-12-03T10:11:04.175Z,6.67
2022-12-03T10:13:04.176Z,6.77
2022-12-03T10:16:44.562Z,6.6
2022-12-03T10:18:44.505Z,6.78
2022-12-03T10:20:44.623Z,6.91
2022-12-03T10:22:44.503Z,6.97
2022-12-03T10:24:44.470Z,7.06
2022-12-03T10:26:44.613Z,6.96
2022-12-03T10:28:44.540Z,6.84
2022-12-03T10:31:55.892Z,7.15
2022-12-03T10:33:55.921Z,7.23
2022-12-03T10:35:55.866Z,7.24
2022-12-03T10:37:55.897Z,7.16
2022-12-03T10:39:56.521Z,6.68
2022-12-03T10:41:55.877Z,6.64
2022-12-03T10:43:55.858Z,6.82
2022-12-03T10:46:25.817Z,7.08
2022-12-03T10:48:25.581Z,7.06
2022-12-03T10:50:25.549Z,6.86
2022-12-03T10:52:26.227Z,6.58
2022-12-03T10:54:25.568Z,6.36
2022-12-03T10:56:25.555Z,6.63
2022-12-03T10:58:25.670Z,6.79
2022-12-03T11:01:32.252Z,6.69
2022-12-03T11:03:32.384Z,6.7
2022-12-03T11:05:32.120Z,6.95
2022-12-03T11:07:32.399Z,6.95
2022-12-03T11:09:32.159Z,6.89
2022-12-03T11:11:32.324Z,6.67
2022-12-03T11:13:32.097Z,6.59
2022-12-03T11:15:32.249Z,6.79
2022-12-03T11:17:16.847Z,6.78
2022-12-03T11:19:16.882Z,6.93
2022-12-03T11:21:16.513Z,6.79
2022-12-03T11:23:16.477Z,6.8
2022-12-03T11:25:16.482Z,6.99
2022-12-03T11:27:16.580Z,6.75
2022-12-03T11:29:16.529Z,6.48
2022-12-03T11:32:38.088Z,6.66
2022-12-03T11:34:37.845Z,6.99
2022-12-03T11:37:00.627Z,7.34
2022-12-03T11:38:37.869Z,7.55
2022-12-03T11:40:39.772Z,7.43
2022-12-03T11:42:38.201Z,6.98
2022-12-03T11:44:38.115Z,6.94
2022-12-03T11:47:11.785Z,6.9
2022-12-03T11:49:11.794Z,7.25
2022-12-03T11:51:11.949Z,7.63
2022-12-03T11:53:11.827Z,7.79
2022-12-03T11:55:11.818Z,7.57
2022-12-03T11:57:12.039Z,7.59
2022-12-03T11:59:11.874Z,7.63
2022-12-03T12:02:50.775Z,7.69
2022-12-03T12:04:50.714Z,7.91
2022-12-03T12:06:53.428Z,7.75
2022-12-03T12:08:50.722Z,7.34
2022-12-03T12:10:50.688Z,7.57
2022-12-03T12:12:54.819Z,7.46
2022-12-03T12:14:50.709Z,7.37
2022-12-03T12:17:23.765Z,7.47
2022-12-03T12:19:23.701Z,7.66
2022-12-03T12:21:23.750Z,7.95
2022-12-03T12:23:23.667Z,8.03
2022-12-03T12:25:23.740Z,7.88
2022-12-03T12:27:23.673Z,7.67
2022-12-03T12:29:23.665Z,7.67
2022-12-03T12:32:45.676Z,7.45
2022-12-03T12:34:45.835Z,7.6
2022-12-03T12:36:45.903Z,7.69
2022-12-03T12:38:45.660Z,7.67
2022-12-03T12:40:45.673Z,7.61
2022-12-03T12:42:45.776Z,7.87
2022-12-03T12:44:45.791Z,8.14
2022-12-03T12:47:47.038Z,8.13
2022-12-03T12:49:51.547Z,8.09
2022-12-03T12:51:47.167Z,8.39
2022-12-03T12:53:46.888Z,8.01
2022-12-03T12:55:46.878Z,7.5
2022-12-03T12:57:46.959Z,7.08
2022-12-03T12:59:46.883Z,7.18
2022-12-03T13:03:20.429Z,7.91
2022-12-03T13:05:20.420Z,8.03
2022-12-03T13:07:20.661Z,8.1
2022-12-03T13:09:20.441Z,8.22
2022-12-03T13:11:20.409Z,8.17
2022-12-03T13:13:20.426Z,8.18
2022-12-03T13:15:20.530Z,8.21
2022-12-03T13:17:56.171Z,8.05
2022-12-03T13:20:05.384Z,7.98
2022-12-03T13:21:56.132Z,8.1
2022-12-03T13:23:56.207Z,8.23
2022-12-03T13:26:03.951Z,8.39
2022-12-03T13:27:56.132Z,8.47
2022-12-03T13:29:56.484Z,8.25
2022-12-03T13:31:56.174Z,8.38
2022-12-03T13:33:01.081Z,8.41
2022-12-03T13:35:01.133Z,8.5
2022-12-03T13:37:01.049Z,8.45
2022-12-03T13:39:01.195Z,8.12
2022-12-03T13:41:01.074Z,7.92
2022-12-03T13:43:01.061Z,7.72
2022-12-03T13:45:01.077Z,8.1
2022-12-03T13:47:01.056Z,8.07
2022-12-03T13:48:15.751Z,8.06
2022-12-03T13:50:15.837Z,7.81
2022-12-03T13:52:15.927Z,7.93
2022-12-03T13:54:16.197Z,7.91
2022-12-03T13:56:15.827Z,8.02
2022-12-03T13:58:15.767Z,8.1
2022-12-03T14:00:15.781Z,8.02
2022-12-03T14:02:15.872Z,8.08
2022-12-03T14:03:36.003Z,8.1
2022-12-03T14:05:36.004Z,8.07
2022-12-03T14:07:36.059Z,8.12
2022-12-03T14:09:36.025Z,8.15
2022-12-03T14:11:35.994Z,8.21
2022-12-03T14:13:35.981Z,8.24
2022-12-03T14:15:35.987Z,8.16
2022-12-03T14:18:57.133Z,8.16
2022-12-03T14:20:57.128Z,8.09
2022-12-03T14:22:59.416Z,7.99
2022-12-03T14:24:57.196Z,7.94
2022-12-03T14:26:57.133Z,7.91
2022-12-03T14:28:57.118Z,7.88
2022-12-03T14:30:57.111Z,7.76
2022-12-03T14:34:32.477Z,7.68
2022-12-03T14:36:32.434Z,7.7
2022-12-03T14:38:32.422Z,7.46
2022-12-03T14:40:32.301Z,7.23
2022-12-03T14:42:32.475Z,7.2
2022-12-03T14:44:32.345Z,7.41
2022-12-03T14:46:32.269Z,7.58
2022-12-03T14:49:08.915Z,7.58
2022-12-03T14:51:08.894Z,7.63
2022-12-03T14:53:08.911Z,7.64
2022-12-03T14:55:08.839Z,7.57
2022-12-03T14:57:08.915Z,7.67
2022-12-03T14:59:08.962Z,7.78
2022-12-03T15:01:08.861Z,7.67
2022-12-03T15:04:55.717Z,7.63
2022-12-03T15:06:55.647Z,7.58
2022-12-03T15:08:55.827Z,7.59
2022-12-03T15:10:55.724Z,7.52
2022-12-03T15:12:55.694Z,7.51
2022-12-03T15:14:55.614Z,7.46
2022-12-03T15:16:55.770Z,7.42
2022-12-03T15:19:08.797Z,7.42
2022-12-03T15:21:08.813Z,7.4
2022-12-03T15:23:12.778Z,7.53
2022-12-03T15:25:08.782Z,7.58
2022-12-03T15:27:08.844Z,7.42
2022-12-03T15:29:08.859Z,7.36
2022-12-03T15:31:08.814Z,7.42
2022-12-03T15:33:08.968Z,7.42
2022-12-03T15:34:36.032Z,7.42
2022-12-03T15:36:36.000Z,7.27
2022-12-03T15:38:36.050Z,7.31
2022-12-03T15:40:35.999Z,7.34
2022-12-03T15:42:35.960Z,7.36
2022-12-03T15:44:36.109Z,7.33
2022-12-03T15:46:36.083Z,7.22
2022-12-03T15:50:10.709Z,7.07
2022-12-03T15:52:10.775Z,7.07
2022-12-03T15:54:10.821Z,7.06
2022-12-03T15:56:10.715Z,6.98
2022-12-03T15:58:10.736Z,6.98
2022-12-03T16:00:10.732Z,6.94
2022-12-03T16:02:10.891Z,6.9
2022-12-03T16:05:28.893Z,6.8
2022-12-03T16:07:28.937Z,6.8
2022-12-03T16:09:28.936Z,6.83
2022-12-03T16:11:28.884Z,6.78
2022-12-03T16:13:28.854Z,6.72
2022-12-03T16:15:28.975Z,6.65
2022-12-03T16:17:28.860Z,6.64
2022-12-03T16:20:08.893Z,6.59
2022-12-03T16:22:08.744Z,6.53
2022-12-03T16:24:08.745Z,6.47
2022-12-03T16:26:08.806Z,6.4
2022-12-03T16:28:08.733Z,6.33
2022-12-03T16:30:08.736Z,6.25
2022-12-03T16:32:08.756Z,6.25
2022-12-03T16:35:07.776Z,6.22
2022-12-03T16:37:07.778Z,6.18
2022-12-03T16:39:07.807Z,5.97
2022-12-03T16:41:07.868Z,6.1
2022-12-03T16:43:08.007Z,6.1
2022-12-03T16:45:08.160Z,6.04
2022-12-03T16:47:07.783Z,6.01
2022-12-03T16:50:50.719Z,5.97
2022-12-03T16:52:50.698Z,5.97
2022-12-03T16:54:50.712Z,5.82
2022-12-03T16:56:50.648Z,5.92
2022-12-03T16:58:50.665Z,5.93
2022-12-03T17:00:50.692Z,5.89
2022-12-03T17:02:50.763Z,5.91
2022-12-03T17:05:48.634Z,5.95
2022-12-03T17:07:48.627Z,5.89
2022-12-03T17:09:48.664Z,5.88
2022-12-03T17:11:48.602Z,5.84
2022-12-03T17:13:48.574Z,5.83
2022-12-03T17:15:48.683Z,5.76
2022-12-03T17:17:48.620Z,5.71
2022-12-03T17:21:15.765Z,5.46
2022-12-03T17:23:15.703Z,5.37
2022-12-03T17:25:15.702Z,5.54
2022-12-03T17:27:15.698Z,5.4
2022-12-03T17:29:15.668Z,5.42
2022-12-03T17:31:15.838Z,5.42
2022-12-03T17:33:15.772Z,5.38
2022-12-03T17:36:12.379Z,5.32
2022-12-03T17:38:12.201Z,5.34
2022-12-03T17:40:12.260Z,5.25
2022-12-03T17:42:12.064Z,5.22
2022-12-03T17:44:15.194Z,5.19
2022-12-03T17:46:12.116Z,5.23
2022-12-03T17:48:12.332Z,5.19
2022-12-03T17:51:14.851Z,5.02
2022-12-03T17:53:14.462Z,4.99
2022-12-03T17:55:23.860Z,5.08
2022-12-03T17:57:14.451Z,5.15
2022-12-03T17:59:14.652Z,5.01
2022-12-03T18:01:14.913Z,5.11
2022-12-03T18:03:14.804Z,5.14
2022-12-03T18:06:04.446Z,4.94
2022-12-03T18:08:04.505Z,5.06
2022-12-03T18:10:04.361Z,4.99
2022-12-03T18:12:04.339Z,4.94
2022-12-03T18:14:04.505Z,4.96
2022-12-03T18:16:04.359Z,4.91
2022-12-03T18:18:04.282Z,4.88
2022-12-03T18:21:05.951Z,4.83
2022-12-03T18:23:05.865Z,4.77
2022-12-03T18:25:05.966Z,4.77
2022-12-03T18:27:06.008Z,4.77
2022-12-03T18:29:05.957Z,4.64
2022-12-03T18:31:05.973Z,4.71
2022-12-03T18:33:06.060Z,4.73
2022-12-03T18:35:06.020Z,4.76
2022-12-03T18:37:07.713Z,4.68
2022-12-03T18:39:07.520Z,4.65
2022-12-03T18:41:07.553Z,4.74
2022-12-03T18:43:07.525Z,4.78
2022-12-03T18:45:07.909Z,4.64
2022-12-03T18:47:07.536Z,4.78
2022-12-03T18:49:07.601Z,4.79
2022-12-03T18:52:02.670Z,4.73
2022-12-03T18:54:02.827Z,4.8
2022-12-03T18:56:02.820Z,4.78
2022-12-03T18:58:02.860Z,4.85
2022-12-03T19:00:02.742Z,4.84
2022-12-03T19:02:02.797Z,4.86
2022-12-03T19:04:02.703Z,4.88
2022-12-03T19:06:43.372Z,4.8
2022-12-03T19:08:43.353Z,4.87
2022-12-03T19:10:43.347Z,4.73
2022-12-03T19:12:43.560Z,4.79
2022-12-03T19:14:43.520Z,4.84
2022-12-03T19:16:43.719Z,4.85
2022-12-03T19:18:43.376Z,4.8
2022-12-03T19:22:24.044Z,4.74
2022-12-03T19:24:25.401Z,4.67
2022-12-03T19:26:25.053Z,4.74
2022-12-03T19:28:24.021Z,4.78
2022-12-03T19:30:24.107Z,4.77
2022-12-03T19:32:24.051Z,4.64
2022-12-03T19:34:24.302Z,4.71
2022-12-03T19:37:17.839Z,4.7
2022-12-03T19:39:17.847Z,4.69
2022-12-03T19:41:17.912Z,4.61
2022-12-03T19:43:17.952Z,4.58
2022-12-03T19:45:17.842Z,4.57
2022-12-03T19:47:17.755Z,4.51
2022-12-03T19:49:17.997Z,4.55
2022-12-03T19:52:45.462Z,4.54
2022-12-03T19:54:45.435Z,4.48
2022-12-03T19:56:45.611Z,4.41
2022-12-03T19:58:45.408Z,4.45
2022-12-03T20:00:45.534Z,4.49
2022-12-03T20:02:45.419Z,4.45
2022-12-03T20:04:45.420Z,4.4
2022-12-03T20:07:36.625Z,4.36
2022-12-03T20:09:36.676Z,4.45
2022-12-03T20:11:36.648Z,4.42
2022-12-03T20:13:36.791Z,4.41
2022-12-03T20:15:36.616Z,4.44
2022-12-03T20:17:36.553Z,4.48
2022-12-03T20:19:36.799Z,4.45
2022-12-03T20:23:16.675Z,4.4
2022-12-03T20:25:16.367Z,4.06
2022-12-03T20:27:21.223Z,4.27
2022-12-03T20:29:16.562Z,4.21
2022-12-03T20:31:16.605Z,4.43
2022-12-03T20:33:16.510Z,4.24
2022-12-03T20:35:16.629Z,4.28
2022-12-03T20:38:28.051Z,4.46
2022-12-03T20:40:28.181Z,4.22
2022-12-03T20:42:27.977Z,4.41
2022-12-03T20:44:28.066Z,4.55
2022-12-03T20:46:28.021Z,4.68
2022-12-03T20:48:28.023Z,4.8
2022-12-03T20:50:28.163Z,4.85
2022-12-03T20:53:23.530Z,4.89
2022-12-03T20:55:02.962Z,4.91
2022-12-03T20:57:02.961Z,4.94
2022-12-03T20:59:03.038Z,4.96
2022-12-03T21:01:03.167Z,5.05
2022-12-03T21:03:03.285Z,5.07
2022-12-03T21:05:03.276Z,4.89
2022-12-03T21:07:57.959Z,5.05
2022-12-03T21:09:58.138Z,4.99
2022-12-03T21:11:57.881Z,5.16
2022-12-03T21:13:57.885Z,5.27
2022-12-03T21:15:58.026Z,5.35
2022-12-03T21:17:58.031Z,5.34
2022-12-03T21:19:57.968Z,5.43
2022-12-03T21:23:54.856Z,5.39
2022-12-03T21:25:55.288Z,5.5
2022-12-03T21:27:54.746Z,5.57
2022-12-03T21:29:54.950Z,5.55
2022-12-03T21:31:54.751Z,5.57
2022-12-03T21:33:54.770Z,5.52
2022-12-03T21:35:55.018Z,5.62
2022-12-03T21:38:57.148Z,5.58
2022-12-03T21:40:57.111Z,5.61
2022-12-03T21:42:57.098Z,5.61
2022-12-03T21:44:57.187Z,5.62
2022-12-03T21:47:08.785Z,5.63
2022-12-03T21:48:57.106Z,5.76
2022-12-03T21:50:57.101Z,5.68
2022-12-03T21:54:06.396Z,5.68
2022-12-03T21:56:06.426Z,5.73
2022-12-03T21:58:06.434Z,5.79
2022-12-03T22:00:06.470Z,5.86
2022-12-03T22:02:06.690Z,5.86
2022-12-03T22:04:06.652Z,5.84
2022-12-03T22:06:06.390Z,5.68
2022-12-03T22:09:16.749Z,5.83
2022-12-03T22:11:16.404Z,5.89
2022-12-03T22:13:16.409Z,5.89
2022-12-03T22:15:19.013Z,5.89
2022-12-03T22:17:16.423Z,5.94
2022-12-03T22:19:16.571Z,5.88
2022-12-03T22:21:16.543Z,5.91
2022-12-03T22:23:56.466Z,5.94
2022-12-03T22:25:56.530Z,5.91
2022-12-03T22:27:56.713Z,5.91
2022-12-03T22:29:56.970Z,5.9
2022-12-03T22:31:56.601Z,5.91
2022-12-03T22:33:56.623Z,5.96
2022-12-03T22:35:56.611Z,5.99
2022-12-03T22:39:47.192Z,6.15
2022-12-03T22:41:47.114Z,6.08
2022-12-03T22:43:47.117Z,6.01
2022-12-03T22:45:47.434Z,6.03
2022-12-03T22:47:47.774Z,6.17
2022-12-03T22:49:47.351Z,6.15
2022-12-03T22:51:47.025Z,6.14
2022-12-03T22:54:02.906Z,6.15
2022-12-03T22:56:03.104Z,6.16
2022-12-03T22:58:03.006Z,6.16
2022-12-03T23:00:03.085Z,6.25
2022-12-03T23:02:02.874Z,6.18
2022-12-03T23:04:03.356Z,6.08
2022-12-03T23:06:03.349Z,5.75
2022-12-03T23:08:03.559Z,6.02
2022-12-03T23:09:36.799Z,6.02
2022-12-03T23:11:36.940Z,5.9
2022-12-03T23:13:36.665Z,6.12
2022-12-03T23:15:36.822Z,6.2
2022-12-03T23:17:36.680Z,5.75
2022-12-03T23:19:36.729Z,5.58
2022-12-03T23:21:36.699Z,5.45
2022-12-03T23:24:45.068Z,5.49
2022-12-03T23:26:44.943Z,5.87
2022-12-03T23:28:45.032Z,6.05
2022-12-03T23:30:45.137Z,6.12
2022-12-03T23:32:45.255Z,6.14
2022-12-03T23:34:45.025Z,6.17
2022-12-03T23:36:44.932Z,6.18
2022-12-03T23:39:35.197Z,5.94
2022-12-03T23:41:35.228Z,5.83
2022-12-03T23:43:35.320Z,5.73
2022-12-03T23:45:35.159Z,5.71
2022-12-03T23:47:35.441Z,5.89
2022-12-03T23:49:35.369Z,5.96
2022-12-03T23:51:35.522Z,5.76
2022-12-03T23:53:35.637Z,5.73
2022-12-03T23:55:15.406Z,5.8
2022-12-03T23:57:15.612Z,5.73
2022-12-03T23:59:15.639Z,5.49
